Delray Beach, FL (33444)

12:25 PM EDT on July 29, 2016 (GMT -0400)
Delray Beach | | Change Station

Elev 30 ft 26.47 °N, 80.09 °W | Updated 2 seconds ago

Scattered Clouds
Scattered Clouds
96.8 °F
Feels Like
N
2.7
Wind Variable Wind from SSW
Gusts 3.2 mph

Today
High -- | Low -- °F
--% Chance of Precip.
Yesterday
High -- | Low -- °F
Precip. -- in
Pressure 30.07 in
Visibility 10.0 miles
Clouds Scattered Clouds 3200 ft
Dew Point 90 °F
Humidity 81%
Rainfall 0.00 in
Snow Depth Not available.
6:44 AM 8:08 PM
Waning Crescent, 21% visible
METAR KPMP 291553Z 13009KT 10SM SCT032TCU 33/23 A3007 RMK AO2 SLP183 TCU S-N T03280233
Pressure 30.07 in
Visibility 10.0 miles
Clouds Scattered Clouds 3200 ft
Dew Point 90 °F
Humidity 81%
Rainfall 0.00 in
Snow Depth Not available.
6:44 AM 8:08 PM
Waning Crescent, 21% visible
METAR KPMP 291553Z 13009KT 10SM SCT032TCU 33/23 A3007 RMK AO2 SLP183 TCU S-N T03280233

10-Day Weather Forecast

Almanac

Astronomy

Jul. 29, 2016 Rise Set
Actual Time
Civil Twilight
Nautical Twilight
Astronomical Twilight
Moon
Length of Visible Light
Length of Day
Tomorrow will be .
, % of the Moon is Illuminated

Today's Extremes

State Highs State Lows

Community

WunderPhotos

Upload Photos

1,928,365 photos uploaded!

WunderBlog® & News

Nearby

Air Quality

  Air Quality AQ Index Pollutant
Not available.

Snow Depth

Station Depth Elevation

Earthquake Activity

City Distance Mag. Time & Date
Minimum magnitude displayed is 2.5.

Coastal Water Temperatures

Place Temperature

Stations

Nearby Weather Stations

Station Location Temp. Windchill Dew Point Humidity Wind Precip. Elev Updated Type
                   

Watches & Warnings

There are currently no watches in effect.